메인 페이지
METAR-TAF:

METAR-TAF

공항 :

캔자스시티, 미주리, 미국

위도: 39-17-50N, 경도: 094-43-50W, 고도: 312m

현재 날씨관측

예보는 15분 전, 13:53시(UTC)에 발표되었습니다.
15kt, 순간 최대 풍속 22kt
온도 -1°C
습도 86%
기압 1026 hPa
시정: 16.1km
고도 1500ft 상공 구름 많음

METAR: KMCI 061353Z 01015G22KT 10SM BKN015 M01/M03 A3030 RMK AO2 SLP265 T10111033

시각: 08:08 (14:08 UTC)

예보

예보는 2 시간 48분 전, 11:20시(UTC)에 발표되었습니다.
예보 대상 시간: 06일 12시부터 07일 12시까지 (UTC)
13kt, 순간 최대 풍속 24kt
시정: 10km
고도 1500ft 상공 구름 많음
06일 1700시부터 (UTC)
북북동9kt
시정: 10km
고도 20000ft 상공 구름 보통
07일 0000시부터 (UTC)
여러 방향의 바람 5kt
시정: 10km
고도 25000ft 상공 구름 보통
07일 0900시부터 (UTC)
6kt
시정: 10km
맑음

TAF: KMCI 061120Z 0612/0712 01013G24KT P6SM BKN015 FM061700 02009KT P6SM SCT200 FM070000 VRB05KT P6SM SCT250 FM070900 19006KT P6SM SKC

4,000개 이상의 공항 관측 자료 및 예보 (METAR 및 TAF 보고).

지도상에서 검색 가능한 기상관측소가 노란 점과 빨간 점으로 표시되어 있습니다.

기상관측소 명을 보려면 표시 위로 마우스를 이동하세요.

날씨 관측과 예보를 보려면 클릭하세요.

지도 변경 : 확대하려면 엑스 표시가 있는 녹색 버튼, 축소하려면 빼기 표시가 있는 녹색 버튼, 다음 페이지의 지도를 보려면 녹색 화살표를 클릭하세요.


METAR-TAF: